Terminal Aerodrome Forecast
Issued by NWS

Home | Current Version | Previous Version | Graphics & Text | Print | Product List | Glossary On
Versions: 1 2 3 4 5 6 7 8 9 10 11 12 13 14 15 16 17 18 19 20 21 22 23 24 25
327
FTUS43 KBIS 190717 AAA
TAFDIK
TAF AMD
KDIK 190717Z 1907/2006 01007KT P6SM OVC035
      TEMPO 1907/1909 4SM -SN BKN015
     FM191200 03006KT 4SM BR VCSH OVC040
     FM191800 02008KT 1 1/2SM -SN OVC025
     FM192300 04007KT 2SM BR VCSH OVC010
     FM200000 04005KT P6SM OVC010=

USA.gov is the U.S. government's official web portal to all federal, state and local government web resources and services.